Terminal Aerodrome Forecast
Issued by NWS

Home | Current Version | Previous Version | Text Only | Print | Product List | Glossary On
Versions: 1 2 3 4 5 6 7 8 9 10 11 12 13 14 15 16 17 18 19 20 21 22
000
FTUS44 KCRP 031123
TAFALI
TAF
KALI 031123Z 0312/0412 13006KT 5SM BR BKN015
      TEMPO 0312/0313 2SM BR
     FM031400 16008G15KT P6SM VCSH BKN030
     FM032100 14015G20KT P6SM SCT040 BKN250
     FM040000 16010KT P6SM FEW040
     FM040800 16008KT 6SM BR BKN020=

USA.gov is the U.S. government's official web portal to all federal, state and local government web resources and services.